createdAt,value
2022-10-09T00:00:05.727Z,7.15
2022-10-09T00:01:02.637Z,7.11
2022-10-09T00:02:02.649Z,7.11
2022-10-09T00:03:02.605Z,7.11
2022-10-09T00:04:02.644Z,7.06
2022-10-09T00:05:02.644Z,7.06
2022-10-09T00:06:02.612Z,7.05
2022-10-09T00:07:02.582Z,7.03
2022-10-09T00:08:02.534Z,7.00
2022-10-09T00:09:02.535Z,6.99
2022-10-09T00:10:02.528Z,6.96
2022-10-09T00:11:02.555Z,6.96
2022-10-09T00:12:02.486Z,6.93
2022-10-09T00:13:02.479Z,6.92
2022-10-09T00:14:02.488Z,6.88
2022-10-09T00:15:02.463Z,6.84
2022-10-09T00:16:02.426Z,6.82
2022-10-09T00:17:02.496Z,6.79
2022-10-09T00:18:02.413Z,6.78
2022-10-09T00:19:05.392Z,6.77
2022-10-09T00:20:05.392Z,6.75
2022-10-09T00:21:02.379Z,6.74
2022-10-09T00:22:02.355Z,6.72
2022-10-09T00:23:02.388Z,6.70
2022-10-09T00:24:02.320Z,6.70
2022-10-09T00:25:02.367Z,6.69
2022-10-09T00:26:02.297Z,6.69
2022-10-09T00:27:02.298Z,6.67
2022-10-09T00:28:02.293Z,6.66
2022-10-09T00:29:02.260Z,6.67
2022-10-09T00:30:02.240Z,6.66
2022-10-09T00:31:02.330Z,6.64
2022-10-09T00:32:02.246Z,6.63
2022-10-09T00:33:02.201Z,6.62
2022-10-09T00:34:02.208Z,6.62
2022-10-09T00:35:02.192Z,6.59
2022-10-09T00:36:02.151Z,6.59
2022-10-09T00:37:02.168Z,6.57
2022-10-09T00:38:02.134Z,6.57
2022-10-09T00:39:05.117Z,6.54
2022-10-09T00:40:05.139Z,6.54
2022-10-09T00:41:02.084Z,6.46
2022-10-09T00:42:02.103Z,6.45
2022-10-09T00:43:02.062Z,6.46
2022-10-09T00:44:02.055Z,6.45
2022-10-09T00:45:02.034Z,6.42
2022-10-09T00:46:02.066Z,6.44
2022-10-09T00:47:02.045Z,6.41
2022-10-09T00:48:01.985Z,6.38
2022-10-09T00:49:01.990Z,6.36
2022-10-09T00:50:01.969Z,6.35
2022-10-09T00:51:01.973Z,6.33
2022-10-09T00:52:01.962Z,6.33
2022-10-09T00:53:01.978Z,6.30
2022-10-09T00:54:01.930Z,6.28
2022-10-09T00:55:01.893Z,6.28
2022-10-09T00:56:01.886Z,6.28
2022-10-09T00:57:01.894Z,6.24
2022-10-09T00:58:01.857Z,6.20
2022-10-09T00:59:04.919Z,6.19
2022-10-09T01:00:04.846Z,6.19
2022-10-09T01:01:01.904Z,6.16
2022-10-09T01:02:01.972Z,6.16
2022-10-09T01:03:01.788Z,6.14
2022-10-09T01:04:01.769Z,6.12
2022-10-09T01:05:01.803Z,6.11
2022-10-09T01:06:01.740Z,6.09
2022-10-09T01:07:01.743Z,6.09
2022-10-09T01:08:01.750Z,6.08
2022-10-09T01:09:01.733Z,6.07
2022-10-09T01:10:01.690Z,6.07
2022-10-09T01:11:01.691Z,6.05
2022-10-09T01:12:01.671Z,6.02
2022-10-09T01:13:01.672Z,6.01
2022-10-09T01:14:01.699Z,6.01
2022-10-09T01:15:01.634Z,5.98
2022-10-09T01:16:01.632Z,5.97
2022-10-09T01:17:01.602Z,5.97
2022-10-09T01:18:01.581Z,5.93
2022-10-09T01:19:04.593Z,5.93
2022-10-09T01:20:04.603Z,5.94
2022-10-09T01:21:01.543Z,5.91
2022-10-09T01:22:01.533Z,5.91
2022-10-09T01:23:01.516Z,5.91
2022-10-09T01:24:01.510Z,5.90
2022-10-09T01:25:01.498Z,5.90
2022-10-09T01:26:01.513Z,5.91
2022-10-09T01:27:01.456Z,5.91
2022-10-09T01:28:01.609Z,5.91
2022-10-09T01:29:01.449Z,5.90
2022-10-09T01:30:01.426Z,5.91
2022-10-09T01:31:01.587Z,5.93
2022-10-09T01:32:01.395Z,5.93
2022-10-09T01:33:01.376Z,5.93
2022-10-09T01:34:01.376Z,5.90
2022-10-09T01:35:01.355Z,5.90
2022-10-09T01:36:01.345Z,5.87
2022-10-09T01:37:01.346Z,5.87
2022-10-09T01:38:01.356Z,5.87
2022-10-09T01:39:04.310Z,5.87
2022-10-09T01:40:04.338Z,5.89
2022-10-09T01:41:01.278Z,5.86
2022-10-09T01:42:01.269Z,5.84
2022-10-09T01:43:01.286Z,5.83
2022-10-09T01:44:01.243Z,5.82
2022-10-09T01:45:01.208Z,5.83
2022-10-09T01:46:01.224Z,5.83
2022-10-09T01:47:01.199Z,5.84
2022-10-09T01:48:01.209Z,5.84
2022-10-09T01:49:01.177Z,5.83
2022-10-09T01:50:01.158Z,5.83
2022-10-09T01:51:01.146Z,5.83
2022-10-09T01:52:01.129Z,5.79
2022-10-09T01:53:01.144Z,5.80
2022-10-09T01:54:01.108Z,5.80
2022-10-09T01:55:01.092Z,5.75
2022-10-09T01:56:01.101Z,5.75
2022-10-09T01:57:01.067Z,5.71
2022-10-09T01:58:01.061Z,5.72
2022-10-09T01:59:04.043Z,5.71
2022-10-09T02:00:04.092Z,5.71
2022-10-09T02:01:01.001Z,5.71
2022-10-09T02:02:01.184Z,5.69
2022-10-09T02:03:01.034Z,5.68
2022-10-09T02:04:00.973Z,5.66
2022-10-09T02:05:00.942Z,5.66
2022-10-09T02:06:00.953Z,5.65
2022-10-09T02:07:00.932Z,5.65
2022-10-09T02:08:00.896Z,5.65
2022-10-09T02:09:00.901Z,5.64
2022-10-09T02:10:00.873Z,5.61
2022-10-09T02:11:00.894Z,5.59
2022-10-09T02:12:00.864Z,5.56
2022-10-09T02:13:00.846Z,5.56
2022-10-09T02:14:00.816Z,5.53
2022-10-09T02:15:00.806Z,5.50
2022-10-09T02:16:00.869Z,5.48
2022-10-09T02:17:00.787Z,5.46
2022-10-09T02:18:00.774Z,5.44
2022-10-09T02:19:03.986Z,5.41
2022-10-09T02:20:03.772Z,5.39
2022-10-09T02:21:00.736Z,5.35
2022-10-09T02:22:00.710Z,5.35
2022-10-09T02:23:00.705Z,5.32
2022-10-09T02:24:00.677Z,5.32
2022-10-09T02:25:00.697Z,5.30
2022-10-09T02:26:00.657Z,5.29
2022-10-09T02:27:00.657Z,5.29
2022-10-09T02:28:00.628Z,5.29
2022-10-09T02:29:00.639Z,5.28
2022-10-09T02:30:00.621Z,5.28
2022-10-09T02:31:00.676Z,5.25
2022-10-09T02:32:00.569Z,5.23
2022-10-09T02:33:00.576Z,5.23
2022-10-09T02:34:00.616Z,5.21
2022-10-09T02:35:00.559Z,5.20
2022-10-09T02:36:00.521Z,5.18
2022-10-09T02:37:00.521Z,5.18
2022-10-09T02:38:00.525Z,5.17
2022-10-09T02:39:03.509Z,5.15
2022-10-09T02:40:07.058Z,5.17
2022-10-09T02:41:01.463Z,5.14
2022-10-09T02:42:00.452Z,5.15
2022-10-09T02:43:00.420Z,5.15
2022-10-09T02:44:00.433Z,5.15
2022-10-09T02:45:00.391Z,5.14
2022-10-09T02:46:00.438Z,5.14
2022-10-09T02:47:00.385Z,5.17
2022-10-09T02:48:00.363Z,5.15
2022-10-09T02:49:00.396Z,5.14
2022-10-09T02:50:00.332Z,5.17
2022-10-09T02:51:00.314Z,5.17
2022-10-09T02:52:00.312Z,5.17
2022-10-09T02:53:00.286Z,5.20
2022-10-09T02:54:00.283Z,5.20
2022-10-09T02:55:00.313Z,5.21
2022-10-09T02:56:00.259Z,5.21
2022-10-09T02:57:00.302Z,5.21
2022-10-09T02:58:00.227Z,5.23
2022-10-09T02:59:03.205Z,5.25
2022-10-09T03:00:03.225Z,5.26
2022-10-09T03:01:00.184Z,5.25
2022-10-09T03:02:00.252Z,5.23
2022-10-09T03:03:00.243Z,5.25
2022-10-09T03:04:00.147Z,5.26
2022-10-09T03:05:00.106Z,5.28
2022-10-09T03:06:00.109Z,5.26
2022-10-09T03:07:00.089Z,5.26
2022-10-09T03:08:00.081Z,5.25
2022-10-09T03:09:00.096Z,5.28
2022-10-09T03:10:00.053Z,5.28
2022-10-09T03:11:00.075Z,5.26
2022-10-09T03:12:00.024Z,5.28
2022-10-09T03:13:00.041Z,5.28
2022-10-09T03:14:00.049Z,5.26
2022-10-09T03:15:00.008Z,5.29
2022-10-09T03:16:00.005Z,5.30
2022-10-09T03:16:59.959Z,5.32
2022-10-09T03:17:59.939Z,5.35
2022-10-09T03:19:02.978Z,5.35
2022-10-09T03:20:02.929Z,5.39
2022-10-09T03:20:59.900Z,5.35
2022-10-09T03:21:59.890Z,5.33
2022-10-09T03:22:59.890Z,5.32
2022-10-09T03:23:59.850Z,5.32
2022-10-09T03:24:59.915Z,5.26
2022-10-09T03:25:59.826Z,5.25
2022-10-09T03:26:59.811Z,5.25
2022-10-09T03:27:59.801Z,5.25
2022-10-09T03:28:59.781Z,5.26
2022-10-09T03:29:59.781Z,5.26
2022-10-09T03:30:59.880Z,5.26
2022-10-09T03:31:59.790Z,5.26
2022-10-09T03:32:59.742Z,5.29
2022-10-09T03:33:59.715Z,5.30
2022-10-09T03:34:59.704Z,5.30
2022-10-09T03:35:59.725Z,5.30
2022-10-09T03:36:59.692Z,5.32
2022-10-09T03:37:59.667Z,5.33
2022-10-09T03:39:02.663Z,5.32
2022-10-09T03:40:02.644Z,5.35
2022-10-09T03:40:59.632Z,5.33
2022-10-09T03:41:59.636Z,5.32
2022-10-09T03:42:59.604Z,5.32
2022-10-09T03:43:59.605Z,5.33
2022-10-09T03:44:59.566Z,5.32
2022-10-09T03:46:01.215Z,5.32
2022-10-09T03:46:59.586Z,5.33
2022-10-09T03:47:59.518Z,5.33
2022-10-09T03:48:59.543Z,5.33
2022-10-09T03:49:59.496Z,5.30
2022-10-09T03:50:59.517Z,5.32
2022-10-09T03:51:59.536Z,5.33
2022-10-09T03:52:59.457Z,5.32
2022-10-09T03:53:59.446Z,5.33
2022-10-09T03:54:59.428Z,5.32
2022-10-09T03:55:59.420Z,5.35
2022-10-09T03:56:59.408Z,5.35
2022-10-09T03:57:59.406Z,5.33
2022-10-09T03:59:02.373Z,5.35
2022-10-09T04:00:02.427Z,5.33
2022-10-09T04:00:59.392Z,5.29
2022-10-09T04:01:59.322Z,5.28
2022-10-09T04:02:59.384Z,5.26
2022-10-09T04:03:59.289Z,5.25
2022-10-09T04:04:59.280Z,5.23
2022-10-09T04:05:59.319Z,5.23
2022-10-09T04:06:59.252Z,5.23
2022-10-09T04:07:59.230Z,5.20
2022-10-09T04:08:59.224Z,5.21
2022-10-09T04:09:59.212Z,5.18
2022-10-09T04:10:59.193Z,5.17
2022-10-09T04:11:59.253Z,5.17
2022-10-09T04:12:59.170Z,5.15
2022-10-09T04:13:59.161Z,5.17
2022-10-09T04:14:59.132Z,5.17
2022-10-09T04:15:59.144Z,5.15
2022-10-09T04:16:59.125Z,5.14
2022-10-09T04:17:59.164Z,5.15
2022-10-09T04:19:02.451Z,5.15
2022-10-09T04:20:02.094Z,5.18
2022-10-09T04:20:59.065Z,5.15
2022-10-09T04:21:59.046Z,5.15
2022-10-09T04:22:59.026Z,5.14
2022-10-09T04:23:59.068Z,5.15
2022-10-09T04:24:59.006Z,5.17
2022-10-09T04:25:58.994Z,5.15
2022-10-09T04:26:58.976Z,5.17
2022-10-09T04:27:58.970Z,5.17
2022-10-09T04:28:58.946Z,5.15
2022-10-09T04:29:58.986Z,5.15
2022-10-09T04:30:58.927Z,5.14
2022-10-09T04:31:59.035Z,5.11
2022-10-09T04:32:58.896Z,5.11
2022-10-09T04:33:58.886Z,5.10
2022-10-09T04:34:58.865Z,5.10
2022-10-09T04:35:58.879Z,5.10
2022-10-09T04:36:58.838Z,5.10
2022-10-09T04:37:58.842Z,5.08
2022-10-09T04:39:01.808Z,5.08
2022-10-09T04:40:01.811Z,5.11
2022-10-09T04:40:58.779Z,5.10
2022-10-09T04:41:58.789Z,5.12
2022-10-09T04:42:58.800Z,5.12
2022-10-09T04:43:58.761Z,5.12
2022-10-09T04:44:58.722Z,5.14
2022-10-09T04:45:58.753Z,5.14
2022-10-09T04:46:58.691Z,5.12
2022-10-09T04:47:58.681Z,5.12
2022-10-09T04:48:58.690Z,5.11
2022-10-09T04:49:58.701Z,5.11
2022-10-09T04:50:58.630Z,5.11
2022-10-09T04:51:58.623Z,5.10
2022-10-09T04:52:58.660Z,5.10
2022-10-09T04:54:00.779Z,5.10
2022-10-09T04:54:58.591Z,5.08
2022-10-09T04:55:58.631Z,5.10
2022-10-09T04:56:58.559Z,5.10
2022-10-09T04:57:58.542Z,5.10
2022-10-09T04:59:01.529Z,5.10
2022-10-09T05:00:01.543Z,5.12
2022-10-09T05:00:58.545Z,5.10
2022-10-09T05:01:58.583Z,5.11
2022-10-09T05:02:58.471Z,5.10
2022-10-09T05:03:58.461Z,5.11
2022-10-09T05:04:58.434Z,5.12
2022-10-09T05:05:58.423Z,5.11
2022-10-09T05:06:58.434Z,5.12
2022-10-09T05:07:58.405Z,5.10
2022-10-09T05:08:58.376Z,5.14
2022-10-09T05:09:58.372Z,5.14
2022-10-09T05:10:58.353Z,5.12
2022-10-09T05:11:58.341Z,5.12
2022-10-09T05:12:58.359Z,5.12
2022-10-09T05:13:58.316Z,5.08
2022-10-09T05:14:58.396Z,5.07
2022-10-09T05:15:58.333Z,5.04
2022-10-09T05:17:14.819Z,5.00
2022-10-09T05:17:59.287Z,4.99
2022-10-09T05:19:01.238Z,4.99
2022-10-09T05:20:01.274Z,5.02
2022-10-09T05:20:58.217Z,5.00
2022-10-09T05:21:58.197Z,5.04
2022-10-09T05:22:58.192Z,5.07
2022-10-09T05:23:58.167Z,5.10
2022-10-09T05:24:58.148Z,5.10
2022-10-09T05:25:58.178Z,5.10
2022-10-09T05:26:58.128Z,5.14
2022-10-09T05:27:58.171Z,5.14
2022-10-09T05:28:58.091Z,5.15
2022-10-09T05:29:58.098Z,5.15
2022-10-09T05:30:58.079Z,5.17
2022-10-09T05:31:58.090Z,5.17
2022-10-09T05:32:58.041Z,5.17
2022-10-09T05:33:58.071Z,5.15
2022-10-09T05:34:58.013Z,5.15
2022-10-09T05:35:58.002Z,5.15
2022-10-09T05:36:57.981Z,5.17
2022-10-09T05:37:57.962Z,5.15
2022-10-09T05:39:01.012Z,5.17
2022-10-09T05:40:00.958Z,5.15
2022-10-09T05:40:57.920Z,5.10
2022-10-09T05:41:57.912Z,5.10
2022-10-09T05:42:57.902Z,5.07
2022-10-09T05:43:57.881Z,5.05
2022-10-09T05:44:57.902Z,5.04
2022-10-09T05:45:57.888Z,5.04
2022-10-09T05:46:57.843Z,5.05
2022-10-09T05:47:57.822Z,5.04
2022-10-09T05:48:57.813Z,5.07
2022-10-09T05:49:57.867Z,5.07
2022-10-09T05:50:57.793Z,5.10
2022-10-09T05:51:57.773Z,5.12
2022-10-09T05:52:57.754Z,5.12
2022-10-09T05:53:57.743Z,5.14
2022-10-09T05:54:57.727Z,5.17
2022-10-09T05:56:01.602Z,5.18
2022-10-09T05:56:58.755Z,5.20
2022-10-09T05:57:57.694Z,5.20
2022-10-09T05:59:00.679Z,5.17
2022-10-09T06:00:00.677Z,5.18
2022-10-09T06:00:57.653Z,5.15
2022-10-09T06:01:57.680Z,5.15
2022-10-09T06:02:57.721Z,5.17
2022-10-09T06:03:57.606Z,5.20
2022-10-09T06:04:57.596Z,5.23
2022-10-09T06:05:57.575Z,5.25
2022-10-09T06:06:57.558Z,5.23
2022-10-09T06:07:57.538Z,5.25
2022-10-09T06:08:57.575Z,5.25
2022-10-09T06:09:57.530Z,5.26
2022-10-09T06:10:57.498Z,5.28
2022-10-09T06:11:57.480Z,5.29
2022-10-09T06:12:57.469Z,5.30
2022-10-09T06:13:57.459Z,5.30
2022-10-09T06:14:57.500Z,5.30
2022-10-09T06:15:57.431Z,5.35
2022-10-09T06:16:57.488Z,5.35
2022-10-09T06:17:57.400Z,5.33
2022-10-09T06:19:00.385Z,5.32
2022-10-09T06:20:00.456Z,5.33
2022-10-09T06:20:57.400Z,5.33
2022-10-09T06:21:57.351Z,5.38
2022-10-09T06:22:57.321Z,5.43
2022-10-09T06:23:57.331Z,5.44
2022-10-09T06:24:57.302Z,5.47
2022-10-09T06:25:57.323Z,5.48
2022-10-09T06:26:57.282Z,5.48
2022-10-09T06:27:57.261Z,5.48
2022-10-09T06:28:57.250Z,5.47
2022-10-09T06:29:57.233Z,5.47
2022-10-09T06:30:57.270Z,5.48
2022-10-09T06:31:57.231Z,5.50
2022-10-09T06:32:57.233Z,5.53
2022-10-09T06:33:57.182Z,5.54
2022-10-09T06:34:57.165Z,5.56
2022-10-09T06:36:05.586Z,5.54
2022-10-09T06:36:58.139Z,5.53
2022-10-09T06:37:57.178Z,5.53
2022-10-09T06:39:00.184Z,5.54
2022-10-09T06:40:00.133Z,5.51
2022-10-09T06:40:57.085Z,5.48
2022-10-09T06:41:57.076Z,5.50
2022-10-09T06:42:57.055Z,5.53
2022-10-09T06:43:57.055Z,5.57
2022-10-09T06:44:57.057Z,5.59
2022-10-09T06:45:57.058Z,5.64
2022-10-09T06:46:56.996Z,5.66
2022-10-09T06:47:56.998Z,5.68
2022-10-09T06:48:56.997Z,5.73
2022-10-09T06:49:56.988Z,5.79
2022-10-09T06:50:56.977Z,5.79
2022-10-09T06:51:56.940Z,5.82
2022-10-09T06:52:56.917Z,5.87
2022-10-09T06:53:56.908Z,5.90
2022-10-09T06:54:56.908Z,5.94
2022-10-09T06:55:56.891Z,5.99
2022-10-09T06:56:56.905Z,6.02
2022-10-09T06:57:56.862Z,6.07
2022-10-09T06:58:59.855Z,6.05
2022-10-09T06:59:59.846Z,6.04
2022-10-09T07:00:56.817Z,6.01
2022-10-09T07:01:57.020Z,6.04
2022-10-09T07:02:56.931Z,6.11
2022-10-09T07:03:56.780Z,6.14
2022-10-09T07:04:56.773Z,6.20
2022-10-09T07:05:56.749Z,6.24
2022-10-09T07:06:56.730Z,6.27
2022-10-09T07:07:56.721Z,6.31
2022-10-09T07:08:56.773Z,6.36
2022-10-09T07:09:56.691Z,6.39
2022-10-09T07:10:56.681Z,6.41
2022-10-09T07:11:56.672Z,6.44
2022-10-09T07:12:56.643Z,6.45
2022-10-09T07:13:56.645Z,6.44
2022-10-09T07:14:56.715Z,6.45
2022-10-09T07:15:58.033Z,6.48
2022-10-09T07:16:56.603Z,6.49
2022-10-09T07:17:56.592Z,6.49
2022-10-09T07:18:59.574Z,6.54
2022-10-09T07:19:59.624Z,6.59
2022-10-09T07:20:56.551Z,6.60
2022-10-09T07:21:56.525Z,6.66
2022-10-09T07:22:56.514Z,6.72
2022-10-09T07:23:56.505Z,6.72
2022-10-09T07:24:56.493Z,6.72
2022-10-09T07:25:56.504Z,6.74
2022-10-09T07:26:56.471Z,6.72
2022-10-09T07:27:56.474Z,6.75
2022-10-09T07:28:56.436Z,6.78
2022-10-09T07:29:56.426Z,6.81
2022-10-09T07:30:56.459Z,6.85
2022-10-09T07:31:56.416Z,6.87
2022-10-09T07:32:56.387Z,6.85
2022-10-09T07:33:56.369Z,6.82
2022-10-09T07:34:56.377Z,6.84
2022-10-09T07:35:56.338Z,6.87
2022-10-09T07:36:56.370Z,6.85
2022-10-09T07:37:56.317Z,6.85
2022-10-09T07:38:59.296Z,6.89
2022-10-09T07:39:59.299Z,6.95
2022-10-09T07:40:56.268Z,6.97
2022-10-09T07:41:56.258Z,7.03
2022-10-09T07:42:56.288Z,7.10
2022-10-09T07:43:56.229Z,7.20
2022-10-09T07:44:56.219Z,7.29
2022-10-09T07:45:56.236Z,7.39
2022-10-09T07:46:56.226Z,7.47
2022-10-09T07:47:56.183Z,7.54
2022-10-09T07:48:56.228Z,7.61
2022-10-09T07:49:56.140Z,7.63
2022-10-09T07:50:56.130Z,7.69
2022-10-09T07:51:56.123Z,7.76
2022-10-09T07:52:56.102Z,7.80
2022-10-09T07:53:56.100Z,7.88
2022-10-09T07:54:56.151Z,7.90
2022-10-09T07:55:56.052Z,7.90
2022-10-09T07:56:56.053Z,7.87
2022-10-09T07:57:56.043Z,7.82
2022-10-09T07:58:59.013Z,7.85
2022-10-09T07:59:59.073Z,7.91
2022-10-09T08:00:55.996Z,7.94
2022-10-09T08:01:56.051Z,8.03
2022-10-09T08:02:56.023Z,8.12
2022-10-09T08:03:55.962Z,8.19
2022-10-09T08:04:55.934Z,8.27
2022-10-09T08:05:55.994Z,8.36
2022-10-09T08:06:55.914Z,8.42
2022-10-09T08:07:55.894Z,8.48
2022-10-09T08:08:55.883Z,8.53
2022-10-09T08:09:55.864Z,8.63
2022-10-09T08:10:55.865Z,8.63
2022-10-09T08:11:55.867Z,8.63
2022-10-09T08:12:55.826Z,8.53
2022-10-09T08:13:55.825Z,8.52
2022-10-09T08:14:55.818Z,8.56
2022-10-09T08:15:55.864Z,8.66
2022-10-09T08:16:55.778Z,8.71
2022-10-09T08:17:55.757Z,8.81
2022-10-09T08:18:58.761Z,8.85
2022-10-09T08:19:58.780Z,8.95
2022-10-09T08:20:55.717Z,9.02
2022-10-09T08:21:57.337Z,9.00
2022-10-09T08:22:55.689Z,9.04
2022-10-09T08:23:55.683Z,9.06
2022-10-09T08:24:55.679Z,9.13
2022-10-09T08:25:55.646Z,9.19
2022-10-09T08:26:55.640Z,9.28
2022-10-09T08:27:55.669Z,9.26
2022-10-09T08:28:55.628Z,9.29
2022-10-09T08:29:55.601Z,9.34
2022-10-09T08:30:55.656Z,9.34
2022-10-09T08:31:55.570Z,9.37
2022-10-09T08:32:55.552Z,9.40
2022-10-09T08:33:55.568Z,9.46
2022-10-09T08:34:55.522Z,9.47
2022-10-09T08:35:55.513Z,9.48
2022-10-09T08:36:55.502Z,9.50
2022-10-09T08:37:55.491Z,9.51
2022-10-09T08:38:58.520Z,9.51
2022-10-09T08:39:58.471Z,9.55
2022-10-09T08:40:58.195Z,9.56
2022-10-09T08:41:55.428Z,9.56
2022-10-09T08:42:55.424Z,9.61
2022-10-09T08:43:55.395Z,9.64
2022-10-09T08:44:55.434Z,9.69
2022-10-09T08:45:55.384Z,9.69
2022-10-09T08:46:55.363Z,9.74
2022-10-09T08:47:55.356Z,9.77
2022-10-09T08:48:55.345Z,9.80
2022-10-09T08:49:55.315Z,9.86
2022-10-09T08:50:55.367Z,9.87
2022-10-09T08:51:55.295Z,9.94
2022-10-09T08:52:55.526Z,9.98
2022-10-09T08:53:55.256Z,10.01
2022-10-09T08:54:55.257Z,10.05
2022-10-09T08:55:55.241Z,10.10
2022-10-09T08:56:55.267Z,10.12
2022-10-09T08:57:55.208Z,10.15
2022-10-09T08:58:58.198Z,10.19
2022-10-09T08:59:58.202Z,10.25
2022-10-09T09:00:55.202Z,10.28
2022-10-09T09:01:55.208Z,10.31
2022-10-09T09:02:55.220Z,10.34
2022-10-09T09:03:55.129Z,10.38
2022-10-09T09:04:55.120Z,10.42
2022-10-09T09:05:55.103Z,10.44
2022-10-09T09:06:55.088Z,10.48
2022-10-09T09:07:55.131Z,10.51
2022-10-09T09:08:55.062Z,10.56
2022-10-09T09:09:55.051Z,10.64
2022-10-09T09:10:55.042Z,10.64
2022-10-09T09:11:55.020Z,10.72
2022-10-09T09:12:55.020Z,10.76
2022-10-09T09:13:55.017Z,10.79
2022-10-09T09:14:54.985Z,10.86
2022-10-09T09:15:55.050Z,10.90
2022-10-09T09:16:54.961Z,10.94
2022-10-09T09:17:54.942Z,11.00
2022-10-09T09:18:57.940Z,11.05
2022-10-09T09:19:57.915Z,11.10
2022-10-09T09:20:54.965Z,11.15
2022-10-09T09:21:54.885Z,11.22
2022-10-09T09:22:54.871Z,11.25
2022-10-09T09:23:54.855Z,11.29
2022-10-09T09:24:54.835Z,11.32
2022-10-09T09:25:54.825Z,11.40
2022-10-09T09:26:54.874Z,11.41
2022-10-09T09:27:54.802Z,11.44
2022-10-09T09:28:54.836Z,11.48
2022-10-09T09:29:54.776Z,11.52
2022-10-09T09:30:54.788Z,11.54
2022-10-09T09:31:54.738Z,11.60
2022-10-09T09:32:54.789Z,11.66
2022-10-09T09:33:54.717Z,11.72
2022-10-09T09:34:54.767Z,11.75
2022-10-09T09:35:54.718Z,11.78
2022-10-09T09:36:54.711Z,11.83
2022-10-09T09:37:54.660Z,11.86
2022-10-09T09:40:07.798Z,11.94
2022-10-09T09:40:55.624Z,12.06
2022-10-09T09:41:54.599Z,12.07
2022-10-09T09:42:54.660Z,12.10
2022-10-09T09:43:54.579Z,12.13
2022-10-09T09:44:54.560Z,12.18
2022-10-09T09:45:54.558Z,12.24
2022-10-09T09:46:54.612Z,12.27
2022-10-09T09:47:54.523Z,12.31
2022-10-09T09:48:54.533Z,12.39
2022-10-09T09:49:54.511Z,12.43
2022-10-09T09:51:10.126Z,12.49
2022-10-09T09:51:55.492Z,12.53
2022-10-09T09:52:54.453Z,12.57
2022-10-09T09:53:54.431Z,12.62
2022-10-09T09:54:54.444Z,12.68
2022-10-09T09:55:54.421Z,12.72
2022-10-09T09:57:12.084Z,12.78
2022-10-09T09:57:55.376Z,12.83
2022-10-09T09:58:57.365Z,12.87
2022-10-09T09:59:57.408Z,12.97
2022-10-09T10:00:54.395Z,13.01
2022-10-09T10:01:54.441Z,13.08
2022-10-09T10:02:54.298Z,13.16
2022-10-09T10:03:54.279Z,13.23
2022-10-09T10:04:54.393Z,13.27
2022-10-09T10:05:54.264Z,13.28
2022-10-09T10:06:54.247Z,13.33
2022-10-09T10:07:54.304Z,13.39
2022-10-09T10:08:54.221Z,13.46
2022-10-09T10:09:54.235Z,13.53
2022-10-09T10:10:54.198Z,13.57
2022-10-09T10:11:54.169Z,13.65
2022-10-09T10:12:54.219Z,13.60
2022-10-09T10:13:54.229Z,13.63
2022-10-09T10:14:54.140Z,13.71
2022-10-09T10:15:54.211Z,13.78
2022-10-09T10:16:54.143Z,13.83
2022-10-09T10:17:54.121Z,13.90
2022-10-09T10:18:57.124Z,13.95
2022-10-09T10:19:57.127Z,13.97
2022-10-09T10:20:54.150Z,14.03
2022-10-09T10:21:54.065Z,14.08
2022-10-09T10:22:54.062Z,14.15
2022-10-09T10:23:54.047Z,14.17
2022-10-09T10:24:54.087Z,14.18
2022-10-09T10:25:53.982Z,14.20
2022-10-09T10:26:53.975Z,14.23
2022-10-09T10:27:53.994Z,14.26
2022-10-09T10:28:53.949Z,14.35
2022-10-09T10:29:53.965Z,14.43
2022-10-09T10:30:53.998Z,14.44
2022-10-09T10:31:53.896Z,14.37
2022-10-09T10:32:53.885Z,14.30
2022-10-09T10:33:53.867Z,14.25
2022-10-09T10:34:53.858Z,14.23
2022-10-09T10:35:53.870Z,14.12
2022-10-09T10:36:53.897Z,14.07
2022-10-09T10:37:53.825Z,14.07
2022-10-09T10:38:56.835Z,14.04
2022-10-09T10:39:56.818Z,14.11
2022-10-09T10:40:53.830Z,14.18
2022-10-09T10:41:53.788Z,14.29
2022-10-09T10:42:59.239Z,14.44
2022-10-09T10:43:54.750Z,14.55
2022-10-09T10:44:53.720Z,14.66
2022-10-09T10:45:53.720Z,14.77
2022-10-09T10:46:53.783Z,14.82
2022-10-09T10:47:53.721Z,14.85
2022-10-09T10:48:53.691Z,14.91
2022-10-09T10:49:53.675Z,14.99
2022-10-09T10:50:53.645Z,14.97
2022-10-09T10:51:53.622Z,15.06
2022-10-09T10:52:53.669Z,15.09
2022-10-09T10:53:53.672Z,15.14
2022-10-09T10:54:53.614Z,15.17
2022-10-09T10:55:53.563Z,15.21
2022-10-09T10:56:53.575Z,15.17
2022-10-09T10:57:53.576Z,15.17
2022-10-09T10:58:56.605Z,15.17
2022-10-09T10:59:56.577Z,15.18
2022-10-09T11:00:53.548Z,15.19
2022-10-09T11:01:53.495Z,15.21
2022-10-09T11:02:53.724Z,15.25
2022-10-09T11:03:53.476Z,15.27
2022-10-09T11:04:53.517Z,15.39
2022-10-09T11:05:53.446Z,15.44
2022-10-09T11:06:53.468Z,15.47
2022-10-09T11:07:56.578Z,15.51
2022-10-09T11:08:54.397Z,15.46
2022-10-09T11:09:53.378Z,15.46
2022-10-09T11:10:53.388Z,15.42
2022-10-09T11:11:53.431Z,15.51
2022-10-09T11:12:53.364Z,15.59
2022-10-09T11:13:53.341Z,15.65
2022-10-09T11:14:53.300Z,15.62
2022-10-09T11:15:53.327Z,15.72
2022-10-09T11:16:53.288Z,15.76
2022-10-09T11:17:53.303Z,15.84
2022-10-09T11:18:56.291Z,15.92
2022-10-09T11:19:56.291Z,16.01
2022-10-09T11:20:53.291Z,16.00
2022-10-09T11:21:53.222Z,16.08
2022-10-09T11:22:53.217Z,16.15
2022-10-09T11:23:53.213Z,16.13
2022-10-09T11:24:53.194Z,16.23
2022-10-09T11:25:53.174Z,16.28
2022-10-09T11:26:53.142Z,16.35
2022-10-09T11:27:53.145Z,16.35
2022-10-09T11:28:53.173Z,16.29
2022-10-09T11:29:53.164Z,16.23
2022-10-09T11:30:53.125Z,16.08
2022-10-09T11:31:53.144Z,15.97
2022-10-09T11:32:53.067Z,15.88
2022-10-09T11:33:53.079Z,15.95
2022-10-09T11:34:53.060Z,15.95
2022-10-09T11:35:53.050Z,15.90
2022-10-09T11:36:53.000Z,15.88
2022-10-09T11:37:53.006Z,15.79
2022-10-09T11:38:56.009Z,15.88
2022-10-09T11:39:56.030Z,15.92
2022-10-09T11:40:52.965Z,15.92
2022-10-09T11:41:52.928Z,16.04
2022-10-09T11:42:52.960Z,16.08
2022-10-09T11:43:52.921Z,16.02
2022-10-09T11:44:52.919Z,16.04
2022-10-09T11:45:52.956Z,16.10
2022-10-09T11:46:52.861Z,16.17
2022-10-09T11:47:52.966Z,16.31
2022-10-09T11:48:52.893Z,16.26
2022-10-09T11:49:52.832Z,16.33
2022-10-09T11:50:52.894Z,16.33
2022-10-09T11:51:52.817Z,16.31
2022-10-09T11:52:52.804Z,16.35
2022-10-09T11:53:52.804Z,16.32
2022-10-09T11:54:52.776Z,16.17
2022-10-09T11:55:52.775Z,16.00
2022-10-09T11:56:52.775Z,15.92
2022-10-09T11:57:53.055Z,15.86
2022-10-09T11:58:55.717Z,15.86
2022-10-09T11:59:55.707Z,15.90
2022-10-09T12:00:52.724Z,15.82
2022-10-09T12:01:52.753Z,15.76
2022-10-09T12:02:52.708Z,15.84
2022-10-09T12:03:52.646Z,15.92
2022-10-09T12:04:55.260Z,16.01
2022-10-09T12:05:52.638Z,16.01
2022-10-09T12:06:52.668Z,16.04
2022-10-09T12:07:52.630Z,16.17
2022-10-09T12:08:52.659Z,16.32
2022-10-09T12:09:52.578Z,16.42
2022-10-09T12:10:52.583Z,16.39
2022-10-09T12:11:52.551Z,16.33
2022-10-09T12:12:52.532Z,16.36
2022-10-09T12:13:52.532Z,16.31
2022-10-09T12:14:52.542Z,16.16
2022-10-09T12:15:52.493Z,16.09
2022-10-09T12:16:52.589Z,15.98
2022-10-09T12:17:52.473Z,15.97
2022-10-09T12:18:55.481Z,15.92
2022-10-09T12:20:00.187Z,15.97
2022-10-09T12:20:53.413Z,15.82
2022-10-09T12:21:52.404Z,15.83
2022-10-09T12:23:13.915Z,15.91
2022-10-09T12:23:53.371Z,15.84
2022-10-09T12:24:52.414Z,15.90
2022-10-09T12:25:52.367Z,15.94
2022-10-09T12:26:52.343Z,15.88
2022-10-09T12:27:52.359Z,15.80
2022-10-09T12:28:52.369Z,15.72
2022-10-09T12:29:52.350Z,15.75
2022-10-09T12:30:52.341Z,15.88
2022-10-09T12:31:52.262Z,16.00
2022-10-09T12:32:52.755Z,16.05
2022-10-09T12:33:52.259Z,16.13
2022-10-09T12:34:52.258Z,16.16
2022-10-09T12:35:52.219Z,16.23
2022-10-09T12:36:52.218Z,16.33
2022-10-09T12:37:52.243Z,16.43
2022-10-09T12:38:55.210Z,16.51
2022-10-09T12:39:55.220Z,16.57
2022-10-09T12:40:52.151Z,16.47
2022-10-09T12:41:52.222Z,16.32
2022-10-09T12:42:52.670Z,16.28
2022-10-09T12:43:52.172Z,16.20
2022-10-09T12:44:52.131Z,16.23
2022-10-09T12:45:52.118Z,16.35
2022-10-09T12:46:52.154Z,16.43
2022-10-09T12:47:52.077Z,16.51
2022-10-09T12:48:52.044Z,16.61
2022-10-09T12:49:52.065Z,16.75
2022-10-09T12:50:52.027Z,16.84
2022-10-09T12:51:55.304Z,16.93
2022-10-09T12:52:52.294Z,17.01
2022-10-09T12:53:51.996Z,17.05
2022-10-09T12:54:51.997Z,17.08
2022-10-09T12:55:51.967Z,17.06
2022-10-09T12:56:51.936Z,17.08
2022-10-09T12:57:51.948Z,17.11
2022-10-09T12:58:54.979Z,17.12
2022-10-09T12:59:54.919Z,17.19
2022-10-09T13:00:51.899Z,17.19
2022-10-09T13:01:51.976Z,17.20
2022-10-09T13:02:52.317Z,17.20
2022-10-09T13:03:51.860Z,17.20
2022-10-09T13:04:51.910Z,17.20
2022-10-09T13:05:51.830Z,17.15
2022-10-09T13:06:51.808Z,17.01
2022-10-09T13:07:51.824Z,16.94
2022-10-09T13:08:51.903Z,16.79
2022-10-09T13:09:51.771Z,16.78